sensor_id;sensor_type;location;lat;lon;timestamp;P1;durP1;ratioP1;P2;durP2;ratioP2
35243;SDS011;37916;52.160;21.066;2023-12-28T00:08:27;35.70;;;17.23;;
35243;SDS011;37916;52.160;21.066;2023-12-28T00:18:28;42.42;;;18.17;;
35243;SDS011;37916;52.160;21.066;2023-12-28T00:28:29;38.03;;;17.80;;
35243;SDS011;37916;52.160;21.066;2023-12-28T00:38:30;36.03;;;17.50;;
35243;SDS011;37916;52.160;21.066;2023-12-28T00:48:31;29.25;;;15.23;;
35243;SDS011;37916;52.160;21.066;2023-12-28T00:58:32;33.22;;;15.82;;
35243;SDS011;37916;52.160;21.066;2023-12-28T01:08:33;33.25;;;15.02;;
35243;SDS011;37916;52.160;21.066;2023-12-28T01:18:34;30.02;;;13.75;;
35243;SDS011;37916;52.160;21.066;2023-12-28T01:28:35;32.35;;;14.77;;
35243;SDS011;37916;52.160;21.066;2023-12-28T01:38:36;31.55;;;14.38;;
35243;SDS011;37916;52.160;21.066;2023-12-28T01:48:37;32.00;;;14.25;;
35243;SDS011;37916;52.160;21.066;2023-12-28T01:58:38;32.30;;;13.18;;
35243;SDS011;37916;52.160;21.066;2023-12-28T02:08:40;21.80;;;11.98;;
35243;SDS011;37916;52.160;21.066;2023-12-28T02:18:45;23.85;;;11.90;;
35243;SDS011;37916;52.160;21.066;2023-12-28T02:28:48;29.15;;;12.45;;
35243;SDS011;37916;52.160;21.066;2023-12-28T02:38:49;25.88;;;10.57;;
35243;SDS011;37916;52.160;21.066;2023-12-28T02:48:52;21.05;;;10.43;;
35243;SDS011;37916;52.160;21.066;2023-12-28T02:58:57;25.02;;;11.23;;
35243;SDS011;37916;52.160;21.066;2023-12-28T03:08:58;21.50;;;10.02;;
35243;SDS011;37916;52.160;21.066;2023-12-28T03:18:59;24.83;;;10.25;;
35243;SDS011;37916;52.160;21.066;2023-12-28T03:29:00;22.50;;;10.45;;
35243;SDS011;37916;52.160;21.066;2023-12-28T03:39:01;29.05;;;9.82;;
35243;SDS011;37916;52.160;21.066;2023-12-28T03:49:03;22.50;;;9.30;;
35243;SDS011;37916;52.160;21.066;2023-12-28T03:59:04;18.85;;;8.70;;
35243;SDS011;37916;52.160;21.066;2023-12-28T04:09:05;18.33;;;7.88;;
35243;SDS011;37916;52.160;21.066;2023-12-28T04:19:06;19.67;;;8.70;;
35243;SDS011;37916;52.160;21.066;2023-12-28T04:29:07;17.48;;;7.18;;
35243;SDS011;37916;52.160;21.066;2023-12-28T04:39:08;14.00;;;6.50;;
35243;SDS011;37916;52.160;21.066;2023-12-28T04:49:10;16.98;;;6.55;;
35243;SDS011;37916;52.160;21.066;2023-12-28T04:59:14;16.27;;;6.60;;
35243;SDS011;37916;52.160;21.066;2023-12-28T05:09:15;20.33;;;6.88;;
35243;SDS011;37916;52.160;21.066;2023-12-28T05:19:16;15.98;;;6.53;;
35243;SDS011;37916;52.160;21.066;2023-12-28T05:29:17;16.50;;;7.10;;
35243;SDS011;37916;52.160;21.066;2023-12-28T05:39:18;16.48;;;7.53;;
35243;SDS011;37916;52.160;21.066;2023-12-28T05:49:19;16.25;;;6.95;;
35243;SDS011;37916;52.160;21.066;2023-12-28T05:59:20;20.88;;;7.32;;
35243;SDS011;37916;52.160;21.066;2023-12-28T06:09:21;17.70;;;6.65;;
35243;SDS011;37916;52.160;21.066;2023-12-28T06:19:22;13.57;;;6.63;;
35243;SDS011;37916;52.160;21.066;2023-12-28T06:29:23;13.43;;;6.68;;
35243;SDS011;37916;52.160;21.066;2023-12-28T06:39:24;13.60;;;6.28;;
35243;SDS011;37916;52.160;21.066;2023-12-28T06:49:25;17.25;;;7.43;;
35243;SDS011;37916;52.160;21.066;2023-12-28T06:59:26;16.65;;;7.20;;
35243;SDS011;37916;52.160;21.066;2023-12-28T07:09:28;12.38;;;6.20;;
35243;SDS011;37916;52.160;21.066;2023-12-28T07:19:29;18.65;;;7.28;;
35243;SDS011;37916;52.160;21.066;2023-12-28T07:29:30;17.58;;;7.43;;
35243;SDS011;37916;52.160;21.066;2023-12-28T07:39:31;13.82;;;6.53;;
35243;SDS011;37916;52.160;21.066;2023-12-28T07:49:32;11.60;;;6.43;;
35243;SDS011;37916;52.160;21.066;2023-12-28T07:59:33;14.52;;;6.68;;
35243;SDS011;37916;52.160;21.066;2023-12-28T08:09:34;13.93;;;6.68;;
35243;SDS011;37916;52.160;21.066;2023-12-28T08:19:35;17.27;;;7.07;;
35243;SDS011;37916;52.160;21.066;2023-12-28T08:29:36;15.27;;;7.00;;
35243;SDS011;37916;52.160;21.066;2023-12-28T08:39:37;14.38;;;7.47;;
35243;SDS011;37916;52.160;21.066;2023-12-28T08:49:40;15.82;;;8.18;;
35243;SDS011;37916;52.160;21.066;2023-12-28T08:59:41;14.45;;;7.60;;
35243;SDS011;37916;52.160;21.066;2023-12-28T09:09:42;16.30;;;7.78;;
35243;SDS011;37916;52.160;21.066;2023-12-28T09:19:43;15.30;;;6.68;;
35243;SDS011;37916;52.160;21.066;2023-12-28T09:29:44;12.73;;;6.72;;
35243;SDS011;37916;52.160;21.066;2023-12-28T09:39:45;11.63;;;6.13;;
35243;SDS011;37916;52.160;21.066;2023-12-28T09:49:47;12.52;;;6.47;;
35243;SDS011;37916;52.160;21.066;2023-12-28T09:59:48;11.75;;;5.13;;
35243;SDS011;37916;52.160;21.066;2023-12-28T10:09:49;9.68;;;4.47;;
35243;SDS011;37916;52.160;21.066;2023-12-28T10:19:50;13.68;;;4.75;;
35243;SDS011;37916;52.160;21.066;2023-12-28T10:29:53;7.20;;;3.70;;
35243;SDS011;37916;52.160;21.066;2023-12-28T10:39:54;10.73;;;4.03;;
35243;SDS011;37916;52.160;21.066;2023-12-28T10:49:56;5.72;;;2.95;;
35243;SDS011;37916;52.160;21.066;2023-12-28T11:00:01;9.82;;;3.97;;
35243;SDS011;37916;52.160;21.066;2023-12-28T11:10:03;8.23;;;4.53;;
35243;SDS011;37916;52.160;21.066;2023-12-28T11:20:05;6.53;;;2.65;;
35243;SDS011;37916;52.160;21.066;2023-12-28T11:30:14;6.95;;;3.80;;
35243;SDS011;37916;52.160;21.066;2023-12-28T11:40:21;7.28;;;3.63;;
35243;SDS011;37916;52.160;21.066;2023-12-28T11:50:22;7.47;;;3.47;;
35243;SDS011;37916;52.160;21.066;2023-12-28T12:00:23;8.55;;;4.00;;
35243;SDS011;37916;52.160;21.066;2023-12-28T12:10:43;8.63;;;4.20;;
35243;SDS011;37916;52.160;21.066;2023-12-28T12:20:51;7.35;;;3.53;;
35243;SDS011;37916;52.160;21.066;2023-12-28T12:41:20;8.52;;;3.50;;
35243;SDS011;37916;52.160;21.066;2023-12-28T12:52:08;7.03;;;4.07;;
35243;SDS011;37916;52.160;21.066;2023-12-28T13:02:38;7.40;;;4.20;;
35243;SDS011;37916;52.160;21.066;2023-12-28T13:12:46;16.08;;;7.20;;
35243;SDS011;37916;52.160;21.066;2023-12-28T13:23:02;11.13;;;4.80;;
35243;SDS011;37916;52.160;21.066;2023-12-28T13:33:14;7.07;;;3.83;;
35243;SDS011;37916;52.160;21.066;2023-12-28T13:43:21;10.23;;;4.25;;
35243;SDS011;37916;52.160;21.066;2023-12-28T14:03:30;6.47;;;3.67;;
35243;SDS011;37916;52.160;21.066;2023-12-28T14:13:37;7.68;;;3.63;;
35243;SDS011;37916;52.160;21.066;2023-12-28T14:23:40;8.68;;;4.13;;
35243;SDS011;37916;52.160;21.066;2023-12-28T14:33:47;12.38;;;4.18;;
35243;SDS011;37916;52.160;21.066;2023-12-28T14:54:04;7.82;;;4.40;;
35243;SDS011;37916;52.160;21.066;2023-12-28T15:04:06;8.68;;;4.40;;
35243;SDS011;37916;52.160;21.066;2023-12-28T15:14:07;13.90;;;4.90;;
35243;SDS011;37916;52.160;21.066;2023-12-28T15:24:08;11.85;;;5.00;;
35243;SDS011;37916;52.160;21.066;2023-12-28T15:34:09;10.65;;;5.43;;
35243;SDS011;37916;52.160;21.066;2023-12-28T15:44:10;9.40;;;5.20;;
35243;SDS011;37916;52.160;21.066;2023-12-28T15:54:12;10.23;;;5.93;;
35243;SDS011;37916;52.160;21.066;2023-12-28T16:04:13;9.20;;;4.57;;
35243;SDS011;37916;52.160;21.066;2023-12-28T16:14:14;10.20;;;5.07;;
35243;SDS011;37916;52.160;21.066;2023-12-28T16:24:16;10.98;;;4.65;;
35243;SDS011;37916;52.160;21.066;2023-12-28T16:34:17;12.00;;;5.53;;
35243;SDS011;37916;52.160;21.066;2023-12-28T16:44:18;13.68;;;6.38;;
35243;SDS011;37916;52.160;21.066;2023-12-28T17:04:29;14.52;;;6.80;;
35243;SDS011;37916;52.160;21.066;2023-12-28T17:14:31;14.45;;;7.03;;
35243;SDS011;37916;52.160;21.066;2023-12-28T17:24:32;14.00;;;7.22;;
35243;SDS011;37916;52.160;21.066;2023-12-28T17:34:35;13.20;;;6.95;;
35243;SDS011;37916;52.160;21.066;2023-12-28T17:44:36;14.57;;;6.93;;
35243;SDS011;37916;52.160;21.066;2023-12-28T17:54:45;16.33;;;6.93;;
35243;SDS011;37916;52.160;21.066;2023-12-28T18:04:46;13.35;;;7.60;;
35243;SDS011;37916;52.160;21.066;2023-12-28T18:14:47;15.73;;;7.13;;
35243;SDS011;37916;52.160;21.066;2023-12-28T18:24:48;13.85;;;7.18;;
35243;SDS011;37916;52.160;21.066;2023-12-28T18:34:49;17.15;;;6.22;;
35243;SDS011;37916;52.160;21.066;2023-12-28T18:44:51;13.90;;;6.95;;
35243;SDS011;37916;52.160;21.066;2023-12-28T18:54:52;15.55;;;6.90;;
35243;SDS011;37916;52.160;21.066;2023-12-28T19:04:54;12.05;;;6.13;;
35243;SDS011;37916;52.160;21.066;2023-12-28T19:14:56;10.50;;;5.30;;
35243;SDS011;37916;52.160;21.066;2023-12-28T19:24:58;14.15;;;5.88;;
35243;SDS011;37916;52.160;21.066;2023-12-28T19:34:59;11.25;;;5.45;;
35243;SDS011;37916;52.160;21.066;2023-12-28T19:45:00;10.27;;;6.00;;
35243;SDS011;37916;52.160;21.066;2023-12-28T19:55:01;14.27;;;5.40;;
35243;SDS011;37916;52.160;21.066;2023-12-28T20:05:04;10.65;;;5.25;;
35243;SDS011;37916;52.160;21.066;2023-12-28T20:15:05;10.73;;;5.78;;
35243;SDS011;37916;52.160;21.066;2023-12-28T20:25:09;12.38;;;6.13;;
35243;SDS011;37916;52.160;21.066;2023-12-28T20:45:22;11.75;;;5.30;;
35243;SDS011;37916;52.160;21.066;2023-12-28T21:05:34;11.77;;;5.85;;
35243;SDS011;37916;52.160;21.066;2023-12-28T21:15:35;10.63;;;5.32;;
35243;SDS011;37916;52.160;21.066;2023-12-28T21:25:37;12.25;;;5.90;;
35243;SDS011;37916;52.160;21.066;2023-12-28T21:35:38;12.50;;;5.75;;
35243;SDS011;37916;52.160;21.066;2023-12-28T21:45:39;14.13;;;6.57;;
35243;SDS011;37916;52.160;21.066;2023-12-28T22:05:51;11.50;;;5.50;;
35243;SDS011;37916;52.160;21.066;2023-12-28T22:15:59;11.38;;;6.05;;
35243;SDS011;37916;52.160;21.066;2023-12-28T22:26:00;12.52;;;5.88;;
35243;SDS011;37916;52.160;21.066;2023-12-28T22:36:01;12.25;;;4.88;;
35243;SDS011;37916;52.160;21.066;2023-12-28T22:46:02;10.25;;;5.05;;
35243;SDS011;37916;52.160;21.066;2023-12-28T22:56:04;10.52;;;5.47;;
35243;SDS011;37916;52.160;21.066;2023-12-28T23:06:05;10.00;;;5.13;;
35243;SDS011;37916;52.160;21.066;2023-12-28T23:16:06;11.20;;;5.00;;
35243;SDS011;37916;52.160;21.066;2023-12-28T23:26:08;10.40;;;5.32;;
35243;SDS011;37916;52.160;21.066;2023-12-28T23:36:09;10.15;;;4.70;;
35243;SDS011;37916;52.160;21.066;2023-12-28T23:46:12;13.73;;;5.13;;
35243;SDS011;37916;52.160;21.066;2023-12-28T23:56:17;10.07;;;4.80;;
